Time;durP1;ratioP1;P1;durP2;ratioP2;P2;SDS_P1;SDS_P2;PMS_P1;PMS_P2;Temp;Humidity;BMP_temperature;BMP_pressure;BME280_temperature;BME280_humidity;BME280_pressure;Samples;Min_cycle;Max_cycle;Signal;HPM_P1;HPM_P2
2023/05/24 00:00:43;;;;;;;36.22;7.57;;;8.40;99.90;;;;;;5074093;28;20369;-37
2023/05/24 00:03:09;;;;;;;28.02;7.15;;;8.30;99.90;;;;;;5072313;28;20048;-35
2023/05/24 00:05:36;;;;;;;37.78;8.13;;;8.40;99.90;;;;;;5074762;28;20468;-39
2023/05/24 00:08:02;;;;;;;21.15;6.70;;;8.40;99.90;;;;;;5074850;28;20044;-38
2023/05/24 00:10:28;;;;;;;31.45;7.45;;;8.40;99.90;;;;;;5070526;28;20044;-39
2023/05/24 00:12:54;;;;;;;26.52;7.93;;;8.40;99.90;;;;;;5073738;28;20051;-38
2023/05/24 00:15:19;;;;;;;29.20;6.95;;;8.40;99.90;;;;;;5075219;28;20047;-38
2023/05/24 00:17:45;;;;;;;31.90;8.75;;;8.40;99.90;;;;;;5074766;28;20127;-38
2023/05/24 00:20:12;;;;;;;27.27;7.50;;;8.30;99.90;;;;;;5074934;28;20040;-37
2023/05/24 00:22:38;;;;;;;25.90;7.40;;;8.30;99.90;;;;;;5073764;28;20396;-39
2023/05/24 00:25:04;;;;;;;37.42;8.18;;;8.30;99.90;;;;;;5075305;28;20146;-39
2023/05/24 00:27:30;;;;;;;25.23;7.35;;;8.30;99.90;;;;;;5074925;28;20063;-35
2023/05/24 00:29:56;;;;;;;27.92;7.35;;;8.30;99.90;;;;;;5075495;28;20470;-37
2023/05/24 00:32:22;;;;;;;26.20;7.43;;;8.30;99.90;;;;;;5073538;28;20048;-41
2023/05/24 00:34:47;;;;;;;30.08;7.10;;;8.30;99.90;;;;;;5074930;28;21040;-41
2023/05/24 00:37:13;;;;;;;29.60;8.18;;;8.30;99.90;;;;;;5069280;28;20127;-38
2023/05/24 00:39:40;;;;;;;27.73;8.70;;;8.30;99.90;;;;;;5073254;28;20563;-38
2023/05/24 00:42:06;;;;;;;34.10;7.47;;;8.30;99.90;;;;;;5072602;28;20044;-35
2023/05/24 00:44:32;;;;;;;28.10;7.07;;;8.20;99.90;;;;;;5061710;28;20702;-35
2023/05/24 00:46:57;;;;;;;23.77;7.38;;;8.20;99.90;;;;;;5072942;28;20116;-37
2023/05/24 00:49:23;;;;;;;23.95;7.05;;;8.20;99.90;;;;;;5074499;28;20059;-38
2023/05/24 00:51:50;;;;;;;19.65;7.30;;;8.20;99.90;;;;;;5073357;28;20051;-39
2023/05/24 00:54:16;;;;;;;22.50;7.05;;;8.20;99.90;;;;;;5074752;28;20056;-39
2023/05/24 00:56:42;;;;;;;26.38;7.60;;;8.20;99.90;;;;;;5073310;28;20051;-37
2023/05/24 00:59:08;;;;;;;27.70;7.28;;;8.20;99.90;;;;;;5073636;28;20131;-40
2023/05/24 01:01:36;;;;;;;24.55;7.20;;;8.20;99.90;;;;;;5072358;28;20123;-41
2023/05/24 01:04:02;;;;;;;25.60;7.22;;;8.20;99.90;;;;;;5075050;28;20051;-35
2023/05/24 01:06:28;;;;;;;27.02;8.50;;;8.30;99.90;;;;;;5072999;28;20332;-37
2023/05/24 01:09:05;;;;;;;28.63;6.97;;;8.30;99.90;;;;;;5070867;28;20048;-37
2023/05/24 01:12:07;;;;;;;31.23;7.60;;;8.40;99.90;;;;;;5069485;28;20152;-38
2023/05/24 01:14:44;;;;;;;26.92;7.43;;;8.40;99.90;;;;;;5073452;28;20482;-37
2023/05/24 01:17:26;;;;;;;25.52;7.72;;;8.50;99.90;;;;;;5074286;28;20101;-38
2023/05/24 01:20:05;;;;;;;28.48;7.45;;;8.50;99.90;;;;;;5073273;28;20047;-38
2023/05/24 01:22:58;;;;;;;31.48;8.25;;;8.50;99.90;;;;;;5070763;28;20044;-38
2023/05/24 01:25:47;;;;;;;27.85;7.57;;;8.50;99.90;;;;;;5073165;28;20147;-39
2023/05/24 01:28:15;;;;;;;24.77;6.93;;;8.50;99.90;;;;;;5061366;28;20040;-41
2023/05/24 01:30:41;;;;;;;25.17;7.28;;;8.50;99.90;;;;;;5073738;28;20048;-36
2023/05/24 01:33:07;;;;;;;30.13;9.18;;;8.50;99.90;;;;;;5072328;28;20553;-38
2023/05/24 01:35:39;;;;;;;34.33;7.32;;;8.50;99.90;;;;;;5072255;28;20051;-37
2023/05/24 01:38:11;;;;;;;29.38;7.45;;;8.50;99.90;;;;;;5071441;28;20079;-40
2023/05/24 01:40:39;;;;;;;25.45;6.93;;;8.50;99.90;;;;;;5073781;28;20051;-40
2023/05/24 01:43:13;;;;;;;26.15;8.00;;;8.50;99.90;;;;;;5063009;28;20261;-35
2023/05/24 01:45:56;;;;;;;28.95;7.32;;;8.50;99.90;;;;;;5070633;28;20063;-40
2023/05/24 01:48:41;;;;;;;;;;;8.50;99.90;;;;;;5067157;28;20549;-38
2023/05/24 01:51:07;;;;;;;;;;;8.50;99.90;;;;;;5071583;28;19924;-38
2023/05/24 01:53:38;;;;;;;26.88;6.90;;;8.50;99.90;;;;;;5072866;28;19989;-40
2023/05/24 01:56:06;;;;;;;33.25;7.40;;;8.40;99.90;;;;;;5073406;28;20044;-37
2023/05/24 01:58:33;;;;;;;24.00;6.60;;;8.50;99.90;;;;;;5073304;28;20047;-38
2023/05/24 02:00:59;;;;;;;25.17;7.47;;;8.40;99.90;;;;;;5067093;28;20051;-40
2023/05/24 02:03:25;;;;;;;28.60;7.75;;;8.40;99.90;;;;;;5068811;28;20052;-36
2023/05/24 02:05:51;;;;;;;25.73;7.07;;;8.40;99.90;;;;;;5071678;28;20036;-42
2023/05/24 02:08:16;;;;;;;22.13;6.45;;;8.30;99.90;;;;;;5054239;28;20091;-41
2023/05/24 02:10:42;;;;;;;25.95;6.85;;;8.30;99.90;;;;;;5067316;28;20128;-43
2023/05/24 02:13:08;;;;;;;27.63;7.00;;;8.40;99.90;;;;;;5075064;28;20074;-42
2023/05/24 02:15:37;;;;;;;23.98;6.82;;;8.30;99.90;;;;;;5075802;28;20067;-39
2023/05/24 02:18:06;;;;;;;21.30;6.47;;;8.40;99.90;;;;;;5077357;28;20645;-39
2023/05/24 02:20:35;;;;;;;26.42;6.78;;;8.30;99.90;;;;;;5077875;28;20075;-41
2023/05/24 02:23:04;;;;;;;29.05;7.80;;;8.30;99.90;;;;;;5072154;28;20102;-37
2023/05/24 02:25:31;;;;;;;18.90;6.40;;;8.30;99.90;;;;;;5069453;28;20040;-36
2023/05/24 02:27:58;;;;;;;22.48;6.80;;;8.30;99.90;;;;;;5075475;28;20826;-38
2023/05/24 02:30:23;;;;;;;26.35;6.22;;;8.30;99.90;;;;;;5076360;28;20055;-38
2023/05/24 02:32:49;;;;;;;26.30;6.95;;;8.30;99.90;;;;;;5075604;28;20411;-39
2023/05/24 02:35:15;;;;;;;22.90;6.38;;;8.30;99.90;;;;;;5076921;28;20036;-41
2023/05/24 02:37:41;;;;;;;24.38;7.65;;;8.30;99.90;;;;;;5072866;28;20112;-36
2023/05/24 02:40:07;;;;;;;24.58;6.03;;;8.30;99.90;;;;;;5077087;28;20048;-41
2023/05/24 02:42:33;;;;;;;23.00;6.40;;;8.30;99.90;;;;;;5069035;28;20057;-38
2023/05/24 02:44:59;;;;;;;31.35;6.93;;;8.30;99.90;;;;;;5067584;28;20607;-38
2023/05/24 02:47:25;;;;;;;24.80;6.38;;;8.30;99.90;;;;;;5076383;28;20040;-39
2023/05/24 02:49:52;;;;;;;24.83;5.65;;;8.30;99.90;;;;;;5076480;28;20036;-41
2023/05/24 02:52:20;;;;;;;26.40;7.45;;;8.30;99.90;;;;;;5074975;28;20164;-39
2023/05/24 02:54:46;;;;;;;24.88;5.78;;;8.30;99.90;;;;;;5071699;28;20040;-35
2023/05/24 02:57:12;;;;;;;21.15;5.93;;;8.30;99.90;;;;;;5076719;28;20392;-39
2023/05/24 02:59:37;;;;;;;19.92;5.68;;;8.30;99.90;;;;;;5076619;28;20067;-44
2023/05/24 03:02:03;;;;;;;23.13;6.60;;;8.30;99.90;;;;;;5057482;28;20044;-38
2023/05/24 03:04:29;;;;;;;27.58;7.00;;;8.30;99.90;;;;;;5076626;28;20051;-39
2023/05/24 03:06:55;;;;;;;24.98;6.72;;;8.30;99.90;;;;;;5076712;28;20050;-36
2023/05/24 03:09:20;;;;;;;25.73;5.82;;;8.20;99.90;;;;;;5069668;28;20036;-37
2023/05/24 03:11:46;;;;;;;32.65;6.13;;;8.20;99.90;;;;;;5073815;28;20039;-36
2023/05/24 03:14:12;;;;;;;25.90;6.15;;;8.20;99.90;;;;;;5077020;28;20048;-38
2023/05/24 03:16:37;;;;;;;28.65;6.90;;;8.20;99.90;;;;;;5075908;28;20109;-44
2023/05/24 03:19:04;;;;;;;24.17;6.72;;;8.20;99.90;;;;;;5075985;28;20058;-40
2023/05/24 03:21:30;;;;;;;24.65;6.15;;;8.20;99.90;;;;;;5072860;28;20202;-36
2023/05/24 03:23:56;;;;;;;28.13;5.90;;;8.20;99.90;;;;;;5075973;28;20111;-39
2023/05/24 03:26:22;;;;;;;21.05;6.53;;;8.20;99.90;;;;;;5075063;28;20089;-39
2023/05/24 03:28:49;;;;;;;21.65;5.47;;;8.20;99.90;;;;;;5076091;28;20457;-39
2023/05/24 03:31:15;;;;;;;27.05;7.32;;;8.10;99.90;;;;;;5074107;28;20052;-37
2023/05/24 03:33:41;;;;;;;23.67;8.00;;;8.20;99.90;;;;;;5075670;28;20137;-41
2023/05/24 03:36:07;;;;;;;24.88;7.07;;;8.10;99.90;;;;;;5070230;28;20401;-40
2023/05/24 03:38:32;;;;;;;21.60;6.53;;;8.10;99.90;;;;;;5075212;28;20036;-36
2023/05/24 03:40:59;;;;;;;23.38;5.25;;;8.10;99.90;;;;;;5074180;28;20178;-42
2023/05/24 03:43:24;;;;;;;22.98;6.68;;;8.20;99.90;;;;;;5063825;28;20040;-39
2023/05/24 03:45:50;;;;;;;19.95;5.13;;;8.20;99.90;;;;;;5073536;28;20047;-37
2023/05/24 03:48:17;;;;;;;24.08;6.20;;;8.20;99.90;;;;;;5095961;27;20493;-38
2023/05/24 03:50:43;;;;;;;24.05;6.38;;;8.20;99.90;;;;;;5073543;28;20514;-38
2023/05/24 03:53:08;;;;;;;19.70;4.88;;;8.20;99.90;;;;;;5074542;28;20078;-39
2023/05/24 03:55:34;;;;;;;18.77;5.50;;;8.20;99.90;;;;;;5075323;28;20051;-38
2023/05/24 03:58:00;;;;;;;21.65;6.05;;;8.20;99.90;;;;;;5074234;28;20048;-39
2023/05/24 04:00:25;;;;;;;29.35;7.32;;;8.20;99.90;;;;;;5074892;28;20097;-36
2023/05/24 04:02:51;;;;;;;26.13;5.68;;;8.20;99.90;;;;;;5068770;28;20040;-39
2023/05/24 04:05:17;;;;;;;20.13;5.85;;;8.30;99.90;;;;;;5055076;28;20487;-39
2023/05/24 04:07:44;;;;;;;24.17;6.30;;;8.30;99.90;;;;;;5074498;28;20205;-39
2023/05/24 04:10:09;;;;;;;22.25;5.85;;;8.30;99.90;;;;;;5067327;28;20040;-37
2023/05/24 04:12:35;;;;;;;19.38;5.00;;;8.40;99.90;;;;;;5074635;28;20040;-39
2023/05/24 04:15:01;;;;;;;19.33;5.78;;;8.50;99.90;;;;;;5074629;28;20170;-38
2023/05/24 04:17:29;;;;;;;21.55;5.78;;;8.60;99.90;;;;;;5074320;28;20059;-42
2023/05/24 04:19:55;;;;;;;22.52;6.07;;;8.80;99.90;;;;;;5073237;28;20418;-36
2023/05/24 04:22:21;;;;;;;17.95;5.00;;;8.90;99.90;;;;;;5073476;28;20392;-40
2023/05/24 04:24:46;;;;;;;22.75;5.70;;;9.00;99.90;;;;;;5073648;28;20036;-40
2023/05/24 04:27:12;;;;;;;27.63;5.63;;;9.00;99.90;;;;;;5073704;28;20048;-40
2023/05/24 04:29:39;;;;;;;21.13;5.28;;;9.20;99.90;;;;;;5074377;28;20032;-41
2023/05/24 04:32:05;;;;;;;20.92;5.82;;;9.50;99.90;;;;;;5073469;28;20490;-40
2023/05/24 04:34:34;;;;;;;23.40;5.72;;;9.80;99.90;;;;;;5063529;28;20050;-38
2023/05/24 04:37:00;;;;;;;19.33;6.10;;;10.20;99.90;;;;;;5070569;28;20040;-37
2023/05/24 04:39:28;;;;;;;17.27;5.78;;;10.80;99.90;;;;;;5074172;28;20129;-36
2023/05/24 04:41:56;;;;;;;22.42;5.57;;;11.50;99.90;;;;;;5073190;28;20090;-41
2023/05/24 04:44:23;;;;;;;17.90;4.68;;;11.80;99.90;;;;;;5061019;28;20591;-39
2023/05/24 04:46:49;;;;;;;17.30;5.13;;;12.20;99.90;;;;;;5074088;28;20048;-37
2023/05/24 04:49:14;;;;;;;25.60;5.63;;;12.30;99.90;;;;;;5072562;28;20036;-42
2023/05/24 04:51:40;;;;;;;20.58;5.40;;;12.60;99.90;;;;;;5066384;28;20047;-40
2023/05/24 04:54:09;;;;;;;17.15;5.00;;;13.50;99.90;;;;;;5072523;28;20044;-39
2023/05/24 04:56:37;;;;;;;17.88;5.35;;;14.30;99.90;;;;;;5074081;28;20874;-44
2023/05/24 04:59:03;;;;;;;17.42;5.10;;;14.10;99.90;;;;;;5074375;28;20471;-40
2023/05/24 05:01:29;;;;;;;15.18;4.72;;;13.90;99.90;;;;;;5066416;28;20059;-37
2023/05/24 05:03:55;;;;;;;17.35;5.10;;;13.50;99.90;;;;;;5073645;28;20040;-36
2023/05/24 05:06:21;;;;;;;18.90;5.65;;;13.00;99.90;;;;;;5074676;28;20044;-41
2023/05/24 05:08:46;;;;;;;18.55;5.85;;;13.00;99.90;;;;;;5072377;28;20429;-41
2023/05/24 05:11:13;;;;;;;17.75;5.28;;;13.20;99.90;;;;;;5066732;28;20498;-37
2023/05/24 05:13:39;;;;;;;19.80;5.65;;;13.80;99.90;;;;;;5056009;28;20121;-43
2023/05/24 05:16:04;;;;;;;23.42;6.13;;;14.50;99.90;;;;;;5073484;28;20047;-40
2023/05/24 05:18:30;;;;;;;19.83;5.50;;;15.40;99.90;;;;;;5072671;28;20032;-37
2023/05/24 05:20:57;;;;;;;17.52;4.68;;;16.50;99.90;;;;;;5072690;28;20059;-40
2023/05/24 05:23:22;;;;;;;19.13;4.95;;;16.70;99.90;;;;;;5074045;28;20044;-39
2023/05/24 05:25:48;;;;;;;18.58;5.82;;;16.10;99.90;;;;;;5068507;28;20048;-39
2023/05/24 05:28:14;;;;;;;15.68;6.10;;;15.50;99.90;;;;;;5073718;28;20127;-40
2023/05/24 05:30:39;;;;;;;17.58;5.65;;;15.50;99.90;;;;;;5070994;28;20442;-40
2023/05/24 05:33:05;;;;;;;14.60;6.05;;;15.10;99.90;;;;;;5073226;28;20409;-37
2023/05/24 05:35:32;;;;;;;16.20;5.18;;;14.70;99.90;;;;;;5072918;28;20070;-42
2023/05/24 05:37:57;;;;;;;15.63;5.28;;;14.30;99.90;;;;;;5069244;28;20104;-44
2023/05/24 05:40:23;;;;;;;17.45;5.47;;;13.90;99.90;;;;;;5073080;28;20542;-42
2023/05/24 05:42:49;;;;;;;20.15;5.70;;;13.60;99.90;;;;;;5066249;28;20452;-40
2023/05/24 05:45:15;;;;;;;17.75;5.78;;;13.30;99.90;;;;;;5066637;28;20127;-43
2023/05/24 05:47:42;;;;;;;22.60;5.47;;;13.10;99.90;;;;;;5078293;28;20056;-37
2023/05/24 05:50:08;;;;;;;17.92;5.97;;;12.90;99.90;;;;;;5076340;28;20043;-39
2023/05/24 05:52:34;;;;;;;20.77;6.55;;;12.70;99.90;;;;;;5077244;28;20052;-39
2023/05/24 05:54:59;;;;;;;15.90;5.97;;;12.60;99.90;;;;;;5078274;28;20063;-40
2023/05/24 05:57:25;;;;;;;27.23;6.03;;;12.50;99.90;;;;;;5097700;27;20036;-41
2023/05/24 05:59:51;;;;;;;21.80;5.65;;;12.30;99.90;;;;;;5076908;28;20043;-40
2023/05/24 06:02:23;;;;;;;22.20;6.22;;;12.40;99.90;;;;;;5076311;28;20407;-40
2023/05/24 06:04:49;;;;;;;20.73;5.93;;;12.40;99.90;;;;;;5077708;28;20048;-40
2023/05/24 06:07:14;;;;;;;23.52;6.70;;;12.50;99.90;;;;;;5077817;28;20446;-42
2023/05/24 06:09:40;;;;;;;22.10;5.82;;;12.40;99.90;;;;;;5067883;28;20131;-42
2023/05/24 06:12:06;;;;;;;23.02;6.05;;;12.40;99.90;;;;;;5069816;28;20081;-37
2023/05/24 06:14:33;;;;;;;20.35;5.97;;;12.30;99.90;;;;;;5081911;28;20628;-39
2023/05/24 06:16:59;;;;;;;17.05;5.15;;;12.30;99.90;;;;;;5077084;28;20048;-39
2023/05/24 06:19:25;;;;;;;23.10;6.65;;;12.40;99.90;;;;;;5076837;28;20473;-44
2023/05/24 06:21:51;;;;;;;19.08;6.15;;;12.40;99.90;;;;;;5076093;28;20445;-40
2023/05/24 06:24:21;;;;;;;20.15;5.32;;;12.40;99.90;;;;;;5076815;28;20048;-44
2023/05/24 06:26:47;;;;;;;31.48;7.28;;;12.70;99.90;;;;;;5067245;28;20036;-36
2023/05/24 06:29:13;;;;;;;24.35;6.05;;;12.90;99.90;;;;;;5068138;28;20127;-40
2023/05/24 06:31:39;;;;;;;21.90;5.78;;;12.80;99.90;;;;;;5073994;28;20132;-42
2023/05/24 06:34:05;;;;;;;16.63;5.13;;;12.80;99.90;;;;;;5075360;28;20047;-39
2023/05/24 06:36:41;;;;;;;20.40;6.40;;;12.90;99.90;;;;;;5070292;28;20308;-40
2023/05/24 06:39:07;;;;;;;16.52;5.40;;;12.90;99.90;;;;;;5063408;28;20475;-41
2023/05/24 06:41:33;;;;;;;21.60;5.85;;;12.80;99.90;;;;;;5073682;28;20044;-39
2023/05/24 06:43:59;;;;;;;21.92;6.07;;;12.80;99.90;;;;;;5073215;28;20078;-43
2023/05/24 06:46:25;;;;;;;21.55;6.20;;;12.60;99.90;;;;;;5082634;28;20040;-47
2023/05/24 06:48:51;;;;;;;16.92;5.60;;;12.60;99.90;;;;;;5090148;28;20032;-42
2023/05/24 06:51:17;;;;;;;17.90;6.65;;;12.50;99.90;;;;;;5074521;28;20129;-41
2023/05/24 06:53:42;;;;;;;28.42;5.95;;;12.40;99.90;;;;;;5085523;28;20426;-42
2023/05/24 06:56:08;;;;;;;19.25;4.68;;;12.40;99.90;;;;;;5085378;28;20066;-42
2023/05/24 06:58:35;;;;;;;18.83;4.78;;;12.40;99.90;;;;;;5076181;28;20345;-43
2023/05/24 07:01:01;;;;;;;23.33;6.20;;;12.50;99.90;;;;;;5075436;28;20048;-41
2023/05/24 07:03:27;;;;;;;24.63;6.97;;;12.50;99.90;;;;;;5075739;28;20355;-39
2023/05/24 07:05:52;;;;;;;30.65;5.30;;;12.60;99.90;;;;;;5074322;28;20768;-38
2023/05/24 07:08:18;;;;;;;20.20;5.45;;;12.60;99.90;;;;;;5071812;28;20078;-40
2023/05/24 07:10:44;;;;;;;18.83;4.68;;;13.00;99.90;;;;;;5065802;28;20080;-40
2023/05/24 07:13:12;;;;;;;18.90;5.28;;;13.60;99.90;;;;;;5075913;28;20075;-40
2023/05/24 07:15:42;;;;;;;15.65;5.55;;;14.10;99.90;;;;;;5077884;28;20043;-43
2023/05/24 07:18:08;;;;;;;19.33;5.68;;;14.50;99.90;;;;;;5077989;28;20044;-44
2023/05/24 07:20:33;;;;;;;19.95;4.95;;;15.00;99.90;;;;;;5075328;28;20466;-37
2023/05/24 07:23:00;;;;;;;19.58;5.50;;;15.30;99.90;;;;;;5074229;28;20060;-43
2023/05/24 07:25:26;;;;;;;24.23;5.85;;;15.30;99.90;;;;;;5075537;28;20123;-41
2023/05/24 07:27:52;;;;;;;20.20;5.13;;;15.20;99.90;;;;;;5076220;28;20040;-44
2023/05/24 07:30:18;;;;;;;19.33;5.57;;;15.00;99.90;;;;;;5075391;28;20036;-41
2023/05/24 07:32:44;;;;;;;18.45;5.13;;;14.80;99.90;;;;;;5075726;28;20065;-38
2023/05/24 07:35:14;;;;;;;18.23;6.45;;;14.90;99.90;;;;;;5076468;28;20538;-40
2023/05/24 07:37:41;;;;;;;17.80;5.05;;;15.20;99.90;;;;;;5068933;28;20122;-37
2023/05/24 07:40:10;;;;;;;17.67;5.25;;;15.70;99.90;;;;;;5076659;28;20497;-40
2023/05/24 07:42:37;;;;;;;16.48;5.05;;;16.60;99.90;;;;;;5070527;28;20133;-40
2023/05/24 07:45:02;;;;;;;20.33;5.68;;;16.90;99.90;;;;;;5067411;28;20063;-41
2023/05/24 07:47:28;;;;;;;17.10;4.63;;;16.80;99.90;;;;;;5075149;28;20408;-41
2023/05/24 07:49:54;;;;;;;11.70;4.03;;;16.60;99.90;;;;;;5066882;28;20102;-39
2023/05/24 07:52:22;;;;;;;17.15;5.75;;;16.40;99.90;;;;;;5066109;28;20321;-43
2023/05/24 07:54:47;;;;;;;16.40;4.78;;;16.50;99.90;;;;;;5078729;28;20153;-41
2023/05/24 07:57:13;;;;;;;18.13;5.75;;;16.60;99.90;;;;;;5089198;28;20056;-41
2023/05/24 07:59:39;;;;;;;13.68;4.95;;;16.40;99.90;;;;;;5080299;28;20400;-41
2023/05/24 08:02:05;;;;;;;23.52;5.35;;;16.30;99.90;;;;;;5079017;28;20040;-38
2023/05/24 08:04:34;;;;;;;12.45;4.63;;;15.60;99.90;;;;;;5083192;28;20044;-37
2023/05/24 08:07:04;;;;;;;19.45;4.65;;;15.40;99.90;;;;;;5074920;28;20123;-39
2023/05/24 08:09:34;;;;;;;13.43;4.07;;;15.30;99.90;;;;;;5065028;28;20052;-44
2023/05/24 08:12:01;;;;;;;13.77;4.55;;;15.30;99.90;;;;;;5072964;28;20372;-40
2023/05/24 08:14:26;;;;;;;18.85;5.25;;;15.20;99.90;;;;;;5056579;28;20611;-42
2023/05/24 08:16:52;;;;;;;15.30;4.90;;;15.20;99.90;;;;;;5072189;28;20042;-44
2023/05/24 08:19:18;;;;;;;14.07;4.85;;;15.10;99.90;;;;;;5073608;28;20036;-42
2023/05/24 08:21:44;;;;;;;12.50;4.30;;;15.10;99.90;;;;;;5072393;28;20047;-48
2023/05/24 08:24:10;;;;;;;8.15;3.50;;;15.10;99.90;;;;;;5073848;28;20398;-40
2023/05/24 08:26:37;;;;;;;14.85;4.30;;;14.90;99.90;;;;;;5074653;28;20047;-40
2023/05/24 08:29:03;;;;;;;23.38;4.85;;;15.10;99.90;;;;;;5070745;28;20441;-43
2023/05/24 08:31:31;;;;;;;13.55;3.97;;;15.10;99.90;;;;;;5072375;28;20043;-39
2023/05/24 08:33:57;;;;;;;11.65;4.65;;;15.00;99.90;;;;;;5072114;28;20051;-42
2023/05/24 08:36:23;;;;;;;13.73;4.60;;;15.10;99.90;;;;;;5069297;28;20044;-39
2023/05/24 08:38:48;;;;;;;19.45;5.63;;;14.80;99.90;;;;;;5071936;28;20039;-41
2023/05/24 08:41:14;;;;;;;15.90;4.80;;;14.70;99.90;;;;;;5072568;28;20498;-41
2023/05/24 08:43:41;;;;;;;11.63;4.70;;;14.70;99.90;;;;;;5066619;28;20466;-39
2023/05/24 08:46:07;;;;;;;14.88;4.55;;;14.70;99.90;;;;;;5074097;28;20122;-37
2023/05/24 08:48:45;;;;;;;14.52;4.35;;;14.50;99.90;;;;;;5072304;28;20083;-42
2023/05/24 08:51:15;;;;;;;13.88;4.68;;;14.50;99.90;;;;;;5073252;28;20380;-40
2023/05/24 08:53:47;;;;;;;14.27;4.32;;;14.30;99.90;;;;;;5073794;28;20417;-40
2023/05/24 08:56:16;;;;;;;13.25;4.47;;;14.40;99.90;;;;;;5074397;28;20059;-40
2023/05/24 08:58:42;;;;;;;13.73;4.85;;;14.30;99.90;;;;;;5073869;28;20036;-42
2023/05/24 09:01:09;;;;;;;12.63;5.45;;;14.40;99.90;;;;;;5072903;28;20052;-41
2023/05/24 09:03:35;;;;;;;14.18;4.60;;;14.50;99.90;;;;;;5072291;28;20465;-40
2023/05/24 09:06:03;;;;;;;17.50;4.93;;;14.40;99.90;;;;;;5074106;28;20047;-42
2023/05/24 09:08:32;;;;;;;17.67;5.05;;;14.10;99.90;;;;;;5072036;28;20083;-37
2023/05/24 09:10:58;;;;;;;12.60;4.70;;;14.00;99.90;;;;;;5062900;28;20366;-42
2023/05/24 09:13:24;;;;;;;12.98;4.18;;;14.00;99.90;;;;;;5067611;28;20563;-42
2023/05/24 09:15:50;;;;;;;15.82;4.95;;;14.10;99.90;;;;;;5066370;28;20668;-42
2023/05/24 09:18:16;;;;;;;15.40;5.22;;;14.10;99.90;;;;;;5066698;28;20492;-42
2023/05/24 09:20:41;;;;;;;11.82;4.60;;;14.10;99.90;;;;;;5068062;28;20036;-40
2023/05/24 09:23:08;;;;;;;12.80;4.70;;;14.20;99.90;;;;;;5069252;28;20044;-43
2023/05/24 09:25:33;;;;;;;18.88;5.03;;;14.10;99.90;;;;;;5069704;28;20395;-43
2023/05/24 09:28:05;;;;;;;16.50;4.80;;;14.00;99.90;;;;;;5066324;28;20036;-42
2023/05/24 09:30:31;;;;;;;15.68;5.68;;;14.10;99.90;;;;;;5063848;28;20048;-42
2023/05/24 09:32:58;;;;;;;18.50;5.20;;;14.20;99.90;;;;;;5068126;28;20048;-40
2023/05/24 09:35:28;;;;;;;16.80;4.85;;;14.40;99.90;;;;;;5058271;28;20926;-37
2023/05/24 09:37:56;;;;;;;14.95;4.53;;;14.30;99.90;;;;;;5052130;28;20473;-40
2023/05/24 09:40:22;;;;;;;12.95;5.03;;;14.30;99.90;;;;;;5069841;28;20047;-38
2023/05/24 09:42:51;;;;;;;17.65;5.28;;;14.20;99.90;;;;;;5054024;28;20435;-42
2023/05/24 09:45:17;;;;;;;13.65;4.25;;;14.30;99.90;;;;;;5056417;28;20048;-42
2023/05/24 09:47:47;;;;;;;11.95;4.47;;;14.20;99.90;;;;;;5056600;28;20820;-38
2023/05/24 09:50:18;;;;;;;14.43;4.70;;;14.40;99.90;;;;;;5060117;28;20032;-42
2023/05/24 09:52:44;;;;;;;15.23;4.82;;;14.60;99.90;;;;;;5054228;28;20482;-45
2023/05/24 09:55:15;;;;;;;17.40;5.47;;;14.60;99.90;;;;;;5054981;28;20499;-43
2023/05/24 09:57:42;;;;;;;15.38;4.93;;;14.40;99.90;;;;;;5053083;28;21393;-44
2023/05/24 10:00:16;;;;;;;14.40;5.10;;;14.50;99.90;;;;;;5051932;28;20078;-45
2023/05/24 10:02:45;;;;;;;14.60;4.38;;;14.60;99.90;;;;;;5057102;28;20387;-42
2023/05/24 10:05:12;;;;;;;16.08;4.30;;;14.90;99.90;;;;;;5054374;28;20710;-39
2023/05/24 10:07:40;;;;;;;15.27;5.10;;;15.10;99.90;;;;;;5064176;28;20074;-42
2023/05/24 10:10:07;;;;;;;13.45;4.32;;;15.10;99.90;;;;;;5053888;28;20403;-41
2023/05/24 10:12:41;;;;;;;14.05;4.65;;;15.20;99.90;;;;;;5048995;28;20045;-40
2023/05/24 10:15:09;;;;;;;13.30;4.88;;;15.50;99.90;;;;;;5056983;28;20046;-44
2023/05/24 10:17:34;;;;;;;16.95;5.50;;;15.50;99.90;;;;;;5051501;28;20486;-43
2023/05/24 10:20:00;;;;;;;13.63;4.32;;;15.90;99.90;;;;;;5053768;28;20043;-42
2023/05/24 10:22:27;;;;;;;13.82;4.28;;;15.90;99.90;;;;;;5055607;28;20056;-41
2023/05/24 10:24:58;;;;;;;9.88;4.25;;;15.90;99.90;;;;;;5060569;28;20126;-41
2023/05/24 10:27:29;;;;;;;10.00;3.75;;;16.10;99.90;;;;;;5065294;28;20074;-40
2023/05/24 10:30:10;;;;;;;13.00;4.13;;;16.30;99.90;;;;;;5064312;28;20047;-43
2023/05/24 10:32:38;;;;;;;16.45;4.78;;;16.10;99.90;;;;;;5071205;28;20884;-40
2023/05/24 10:35:05;;;;;;;13.93;4.25;;;16.10;99.90;;;;;;5072937;28;20448;-44
2023/05/24 10:37:31;;;;;;;12.32;3.95;;;16.20;99.90;;;;;;5067001;28;20043;-45
2023/05/24 10:39:59;;;;;;;10.32;4.07;;;16.30;99.90;;;;;;5071374;28;20466;-43
2023/05/24 10:42:25;;;;;;;11.32;4.85;;;16.20;99.90;;;;;;5069973;28;20633;-44
2023/05/24 10:44:51;;;;;;;11.07;5.20;;;16.40;99.90;;;;;;5071478;28;20075;-42
2023/05/24 10:47:19;;;;;;;11.02;4.85;;;16.30;99.90;;;;;;5071655;28;20190;-45
2023/05/24 10:49:56;;;;;;;13.63;4.18;;;16.20;99.90;;;;;;5070571;28;20043;-47
2023/05/24 10:52:35;;;;;;;11.35;4.40;;;16.40;99.90;;;;;;5071406;28;20036;-42
2023/05/24 10:55:09;;;;;;;10.00;4.47;;;16.30;99.90;;;;;;5071524;28;20379;-39
2023/05/24 10:57:38;;;;;;;13.10;5.25;;;16.00;99.90;;;;;;5072278;28;20218;-40
2023/05/24 11:00:19;;;;;;;16.40;5.22;;;15.70;99.90;;;;;;5069693;28;20988;-41
2023/05/24 11:02:58;;;;;;;12.00;4.72;;;15.60;99.90;;;;;;5070942;28;20050;-41
2023/05/24 11:05:24;;;;;;;13.65;4.05;;;15.60;99.90;;;;;;5071456;28;20086;-37
2023/05/24 11:07:57;;;;;;;10.63;4.15;;;15.80;99.90;;;;;;5071537;28;20040;-37
2023/05/24 11:10:30;;;;;;;10.52;3.97;;;16.10;99.90;;;;;;5066013;28;20044;-46
2023/05/24 11:13:02;;;;;;;14.60;4.22;;;16.20;99.90;;;;;;5071619;28;20092;-42
2023/05/24 11:15:29;;;;;;;10.93;3.47;;;16.10;99.90;;;;;;5071414;28;20332;-43
2023/05/24 11:18:11;;;;;;;10.00;3.75;;;16.10;99.90;;;;;;5070833;28;20048;-43
2023/05/24 11:20:38;;;;;;;9.70;4.38;;;16.20;99.90;;;;;;5069697;28;20093;-40
2023/05/24 11:23:10;;;;;;;9.63;3.92;;;16.10;99.90;;;;;;5070115;28;20058;-40
2023/05/24 11:25:37;;;;;;;12.70;4.07;;;16.20;99.90;;;;;;5072510;28;20391;-37
2023/05/24 11:28:06;;;;;;;14.27;4.30;;;16.20;99.90;;;;;;5070580;28;20098;-42
2023/05/24 11:30:32;;;;;;;9.80;3.25;;;15.90;99.90;;;;;;5070512;28;20836;-42
2023/05/24 11:33:00;;;;;;;11.88;3.72;;;15.70;99.90;;;;;;5070694;28;20052;-42
2023/05/24 11:35:29;;;;;;;10.77;4.38;;;15.90;99.90;;;;;;5066572;28;20748;-43
2023/05/24 11:37:58;;;;;;;7.85;3.55;;;16.00;99.90;;;;;;5065163;28;20040;-44
2023/05/24 11:40:24;;;;;;;10.05;4.25;;;16.30;99.90;;;;;;5065863;28;20047;-41
2023/05/24 11:42:51;;;;;;;11.80;4.50;;;16.70;99.90;;;;;;5069561;28;20051;-38
2023/05/24 11:45:17;;;;;;;11.15;4.53;;;17.00;99.90;;;;;;5069453;28;20483;-40
2023/05/24 11:47:43;;;;;;;8.98;3.72;;;16.60;99.90;;;;;;5069267;28;20529;-40
2023/05/24 11:50:13;;;;;;;7.32;3.92;;;16.30;99.90;;;;;;5067883;28;20031;-41
2023/05/24 11:52:39;;;;;;;10.27;3.95;;;16.50;99.90;;;;;;5069778;28;20047;-37
2023/05/24 11:55:06;;;;;;;10.60;3.75;;;16.40;99.90;;;;;;5070755;28;20833;-39
2023/05/24 11:57:41;;;;;;;13.73;4.45;;;16.30;99.90;;;;;;5068850;28;20040;-39
2023/05/24 12:00:10;;;;;;;10.73;4.05;;;16.20;99.90;;;;;;5069590;28;20350;-40
2023/05/24 12:02:38;;;;;;;13.77;4.57;;;16.20;99.90;;;;;;5070497;28;20040;-43
2023/05/24 12:05:09;;;;;;;11.55;4.45;;;16.10;99.90;;;;;;5071834;28;20040;-47
2023/05/24 12:07:36;;;;;;;10.55;4.25;;;15.90;99.90;;;;;;5071898;28;20597;-42
2023/05/24 12:10:03;;;;;;;10.80;3.63;;;16.30;99.90;;;;;;5066706;28;20203;-37
2023/05/24 12:12:29;;;;;;;10.25;4.07;;;16.60;99.90;;;;;;5071006;28;20499;-41
2023/05/24 12:14:55;;;;;;;10.10;3.97;;;16.60;99.90;;;;;;5070628;28;20670;-41
2023/05/24 12:17:21;;;;;;;7.90;3.75;;;16.50;99.90;;;;;;5069368;28;20055;-37
2023/05/24 12:19:50;;;;;;;9.60;4.40;;;16.50;99.90;;;;;;5069066;28;20371;-45
2023/05/24 12:22:16;;;;;;;9.20;2.97;;;16.50;99.90;;;;;;5066826;28;20399;-42
2023/05/24 12:24:42;;;;;;;12.35;4.00;;;16.50;99.90;;;;;;5067345;28;20048;-38
2023/05/24 12:27:10;;;;;;;10.55;4.35;;;16.40;99.90;;;;;;5068768;28;20106;-43
2023/05/24 12:29:39;;;;;;;11.38;3.35;;;16.50;99.90;;;;;;5069191;28;20032;-41
2023/05/24 12:32:10;;;;;;;8.15;4.07;;;16.50;99.90;;;;;;5070473;28;20044;-42
2023/05/24 12:34:36;;;;;;;12.75;4.05;;;16.70;99.90;;;;;;5070097;28;20047;-37
2023/05/24 12:37:02;;;;;;;10.57;4.35;;;16.50;99.90;;;;;;5067547;28;20404;-38
2023/05/24 12:39:35;;;;;;;9.88;4.65;;;16.50;99.90;;;;;;5070260;28;20035;-43
2023/05/24 12:42:02;;;;;;;6.93;3.53;;;16.50;99.90;;;;;;5065487;28;20459;-41